Historical Data

TheSutherlands

Weather at Humberside Airport

Current Weather from Humberside Airport

The information displayed on this page is from the METAR reports produced by Humberside Airport. Note that there are times when these are not generated.

Weather Report

Coded Weather Report: 2018/12/11 21:50 EGNJ 112150Z AUTO 13009KT 3700 HZ NCD 04/02 Q1023

Report issued: 2018/12/11 at 21:50 UTC

Weather: Code: AUTO
Wind: gentle breeze from the southeast (130 degrees) at 9 knots (10 mph, 17 kph, Force 3)
Visibility: 3700 metres
Weather: haze
Weather: Code: NCD
Temperature: 4 C
Dewpoint: 2 C
Humidity: 87%
Pressure: 1023 hPa